createdAt,value
2022-10-01T00:01:02.183Z,99.90
2022-10-01T00:03:29.523Z,99.90
2022-10-01T00:06:04.160Z,99.90
2022-10-01T00:08:31.509Z,99.90
2022-10-01T00:11:01.538Z,99.90
2022-10-01T00:13:30.362Z,99.90
2022-10-01T00:15:57.214Z,99.90
2022-10-01T00:18:23.997Z,99.90
2022-10-01T00:20:50.783Z,99.90
2022-10-01T00:23:19.424Z,99.90
2022-10-01T00:25:46.156Z,99.90
2022-10-01T00:28:13.005Z,99.90
2022-10-01T00:30:45.762Z,99.90
2022-10-01T00:33:12.558Z,99.90
2022-10-01T00:35:39.260Z,99.90
2022-10-01T00:38:05.998Z,99.90
2022-10-01T00:40:32.661Z,99.90
2022-10-01T00:42:59.406Z,99.90
2022-10-01T00:45:26.228Z,99.90
2022-10-01T00:47:57.987Z,99.90
2022-10-01T00:50:28.275Z,99.90
2022-10-01T00:52:56.756Z,99.90
2022-10-01T00:55:26.699Z,99.90
2022-10-01T00:57:54.966Z,99.90
2022-10-01T01:00:22.167Z,99.90
2022-10-01T01:02:49.601Z,99.90
2022-10-01T01:05:16.768Z,99.90
2022-10-01T01:07:45.526Z,99.90
2022-10-01T01:10:14.075Z,99.90
2022-10-01T01:12:40.867Z,99.90
2022-10-01T01:15:07.683Z,99.90
2022-10-01T01:17:34.971Z,99.90
2022-10-01T01:20:04.922Z,99.90
2022-10-01T01:22:34.182Z,99.90
2022-10-01T01:25:01.038Z,99.90
2022-10-01T01:27:57.184Z,99.90
2022-10-01T01:30:24.030Z,99.90
2022-10-01T01:32:52.996Z,99.90
2022-10-01T01:35:22.200Z,99.90
2022-10-01T01:37:57.193Z,99.90
2022-10-01T01:40:25.375Z,99.90
2022-10-01T01:42:53.994Z,99.90
2022-10-01T01:45:23.043Z,99.90
2022-10-01T01:47:50.414Z,99.90
2022-10-01T01:50:17.623Z,99.90
2022-10-01T01:52:44.410Z,99.90
2022-10-01T01:55:11.319Z,99.90
2022-10-01T01:57:40.809Z,99.90
2022-10-01T02:00:07.841Z,99.90
2022-10-01T02:02:35.424Z,99.90
2022-10-01T02:05:04.960Z,99.90
2022-10-01T02:07:43.743Z,99.90
2022-10-01T02:10:10.495Z,99.90
2022-10-01T02:15:36.123Z,99.90
2022-10-01T02:18:18.387Z,99.90
2022-10-01T02:20:56.931Z,99.90
2022-10-01T02:23:28.864Z,99.90
2022-10-01T02:25:57.823Z,99.90
2022-10-01T02:28:24.894Z,99.90
2022-10-01T02:30:53.309Z,99.90
2022-10-01T02:33:23.082Z,99.90
2022-10-01T02:35:51.418Z,99.90
2022-10-01T02:38:19.831Z,99.90
2022-10-01T02:40:47.964Z,99.90
2022-10-01T02:43:17.992Z,99.90
2022-10-01T02:45:46.731Z,99.90
2022-10-01T02:48:17.696Z,99.90
2022-10-01T02:50:48.509Z,99.90
2022-10-01T02:53:35.891Z,99.90
2022-10-01T02:56:03.828Z,99.90
2022-10-01T02:58:30.683Z,99.90
2022-10-01T03:00:57.450Z,99.90
2022-10-01T03:03:26.045Z,99.90
2022-10-01T03:05:52.895Z,99.90
2022-10-01T03:08:19.611Z,99.90
2022-10-01T03:10:46.969Z,99.90
2022-10-01T03:13:13.760Z,99.90
2022-10-01T03:15:40.570Z,99.90
2022-10-01T03:18:07.302Z,99.90
2022-10-01T03:20:34.065Z,99.90
2022-10-01T03:23:00.815Z,99.90
2022-10-01T03:25:27.549Z,99.90
2022-10-01T03:27:54.284Z,99.90
2022-10-01T03:30:22.106Z,99.90
2022-10-01T03:32:48.782Z,99.90
2022-10-01T03:35:15.600Z,99.90
2022-10-01T03:37:42.329Z,99.90
2022-10-01T03:40:09.123Z,99.90
2022-10-01T03:42:35.879Z,99.90
2022-10-01T03:45:02.640Z,99.90
2022-10-01T03:47:29.306Z,99.90
2022-10-01T03:49:56.102Z,99.90
2022-10-01T03:52:22.901Z,99.90
2022-10-01T03:54:49.675Z,99.90
2022-10-01T03:57:16.373Z,99.90
2022-10-01T03:59:43.153Z,99.90
2022-10-01T04:02:10.073Z,99.90
2022-10-01T04:04:37.059Z,99.90
2022-10-01T04:07:03.732Z,99.90
2022-10-01T04:09:30.485Z,99.90
2022-10-01T04:11:57.372Z,99.90
2022-10-01T04:14:24.252Z,99.90
2022-10-01T04:16:52.396Z,99.90
2022-10-01T04:19:20.225Z,99.90
2022-10-01T04:21:47.019Z,99.90
2022-10-01T04:24:13.819Z,99.90
2022-10-01T04:26:40.534Z,99.90
2022-10-01T04:29:07.292Z,99.90
2022-10-01T04:31:35.546Z,99.90
2022-10-01T04:34:03.072Z,99.90
2022-10-01T04:36:29.788Z,99.90
2022-10-01T04:39:01.673Z,99.90
2022-10-01T04:41:31.019Z,99.90
2022-10-01T04:43:59.712Z,99.90
2022-10-01T04:46:26.747Z,99.90
2022-10-01T04:48:53.571Z,99.90
2022-10-01T04:51:20.290Z,99.90
2022-10-01T04:53:47.072Z,99.90
2022-10-01T04:56:13.824Z,99.90
2022-10-01T04:58:41.301Z,99.90
2022-10-01T05:01:08.157Z,99.90
2022-10-01T05:03:34.943Z,99.90
2022-10-01T05:06:01.892Z,99.90
2022-10-01T05:08:29.353Z,99.90
2022-10-01T05:10:58.542Z,99.90
2022-10-01T05:13:30.336Z,99.90
2022-10-01T05:15:57.678Z,99.90
2022-10-01T05:18:24.547Z,99.90
2022-10-01T05:20:51.275Z,99.90
2022-10-01T05:23:17.964Z,99.90
2022-10-01T05:25:46.168Z,99.90
2022-10-01T05:28:16.011Z,99.90
2022-10-01T05:30:46.542Z,99.90
2022-10-01T05:33:13.262Z,99.90
2022-10-01T05:35:40.927Z,99.90
2022-10-01T05:38:07.716Z,99.90
2022-10-01T05:40:34.416Z,99.90
2022-10-01T05:43:03.061Z,99.90
2022-10-01T05:45:30.620Z,99.90
2022-10-01T05:48:01.719Z,99.90
2022-10-01T05:50:31.600Z,99.90
2022-10-01T05:52:59.334Z,99.90
2022-10-01T05:55:26.793Z,99.90
2022-10-01T05:57:57.768Z,99.90
2022-10-01T06:00:24.789Z,99.90
2022-10-01T06:02:52.396Z,99.90
2022-10-01T06:05:20.095Z,99.90
2022-10-01T06:07:47.113Z,99.90
2022-10-01T06:10:13.996Z,99.90
2022-10-01T06:12:41.119Z,99.90
2022-10-01T06:15:08.077Z,99.90
2022-10-01T06:17:34.853Z,99.90
2022-10-01T06:20:01.845Z,99.90
2022-10-01T06:22:28.695Z,99.90
2022-10-01T06:24:56.789Z,99.90
2022-10-01T06:27:23.586Z,99.90
2022-10-01T06:29:50.368Z,99.90
2022-10-01T06:32:19.772Z,99.90
2022-10-01T06:34:46.577Z,99.90
2022-10-01T06:37:13.306Z,99.90
2022-10-01T06:39:40.125Z,99.90
2022-10-01T06:42:06.857Z,99.90
2022-10-01T06:44:33.615Z,99.90
2022-10-01T06:47:00.358Z,99.90
2022-10-01T06:49:27.211Z,99.90
2022-10-01T06:52:12.680Z,99.90
2022-10-01T06:54:39.629Z,99.90
2022-10-01T06:57:06.339Z,99.90
2022-10-01T06:59:36.339Z,99.90
2022-10-01T07:02:03.997Z,99.90
2022-10-01T07:04:31.059Z,99.90
2022-10-01T07:06:57.970Z,99.90
2022-10-01T07:09:25.334Z,99.90
2022-10-01T07:11:54.027Z,99.90
2022-10-01T07:14:21.756Z,99.90
2022-10-01T07:16:48.640Z,99.90
2022-10-01T07:19:15.444Z,99.90
2022-10-01T07:21:42.254Z,99.90
2022-10-01T07:24:09.095Z,99.90
2022-10-01T07:26:37.857Z,99.90
2022-10-01T07:29:04.718Z,99.90
2022-10-01T07:31:32.505Z,99.90
2022-10-01T07:34:01.908Z,99.90
2022-10-01T07:36:28.711Z,99.90
2022-10-01T07:38:55.876Z,99.90
2022-10-01T07:41:22.844Z,99.90
2022-10-01T07:43:49.819Z,99.90
2022-10-01T07:46:16.728Z,99.90
2022-10-01T07:48:46.235Z,99.90
2022-10-01T07:51:13.160Z,99.90
2022-10-01T07:53:40.005Z,99.90
2022-10-01T07:56:06.783Z,99.90
2022-10-01T07:58:34.325Z,99.90
2022-10-01T08:01:03.277Z,99.90
2022-10-01T08:03:30.079Z,99.90
2022-10-01T08:05:56.900Z,99.90
2022-10-01T08:08:23.666Z,99.90
2022-10-01T08:10:50.664Z,99.90
2022-10-01T08:13:17.791Z,99.90
2022-10-01T08:15:45.999Z,99.90
2022-10-01T08:18:13.087Z,99.90
2022-10-01T08:20:39.922Z,99.90
2022-10-01T08:23:07.661Z,99.90
2022-10-01T08:25:34.997Z,99.90
2022-10-01T08:28:01.874Z,99.90
2022-10-01T08:30:29.004Z,99.90
2022-10-01T08:32:56.117Z,99.90
2022-10-01T08:35:23.542Z,99.90
2022-10-01T08:37:50.478Z,99.90
2022-10-01T08:40:19.096Z,99.90
2022-10-01T08:42:56.087Z,99.90
2022-10-01T08:45:33.455Z,99.90
2022-10-01T08:48:09.847Z,99.90
2022-10-01T08:50:40.423Z,99.90
2022-10-01T08:53:15.297Z,99.90
2022-10-01T08:55:43.092Z,99.80
2022-10-01T08:58:17.524Z,99.60
2022-10-01T09:00:44.969Z,99.50
2022-10-01T09:03:13.267Z,99.50
2022-10-01T09:05:52.283Z,99.60
2022-10-01T09:08:23.816Z,99.50
2022-10-01T09:10:56.535Z,99.30
2022-10-01T09:13:32.593Z,99.30
2022-10-01T09:16:11.616Z,99.20
2022-10-01T09:18:41.817Z,99.30
2022-10-01T09:21:16.441Z,99.30
2022-10-01T09:24:06.400Z,99.10
2022-10-01T09:26:34.569Z,99.30
2022-10-01T09:29:02.624Z,99.50
2022-10-01T09:31:34.242Z,99.20
2022-10-01T09:34:19.336Z,98.90
2022-10-01T09:36:58.353Z,97.40
2022-10-01T09:39:47.851Z,96.40
2022-10-01T09:42:14.778Z,95.40
2022-10-01T09:44:42.765Z,94.10
2022-10-01T09:47:16.338Z,94.00
2022-10-01T09:49:46.199Z,94.10
2022-10-01T09:52:20.491Z,94.00
2022-10-01T09:55:11.169Z,93.30
2022-10-01T09:57:40.252Z,93.20
2022-10-01T10:00:14.705Z,92.50
2022-10-01T10:02:49.103Z,92.60
2022-10-01T10:05:18.213Z,92.50
2022-10-01T10:07:46.741Z,92.50
2022-10-01T10:10:16.580Z,92.30
2022-10-01T10:12:44.125Z,92.10
2022-10-01T10:15:16.557Z,92.10
2022-10-01T10:17:44.265Z,91.90
2022-10-01T10:20:11.880Z,91.70
2022-10-01T10:22:38.709Z,91.70
2022-10-01T10:25:20.114Z,91.50
2022-10-01T10:28:05.149Z,91.60
2022-10-01T10:30:32.398Z,90.90
2022-10-01T10:33:03.721Z,91.20
2022-10-01T10:35:31.316Z,91.60
2022-10-01T10:37:58.636Z,91.40
2022-10-01T10:40:32.264Z,91.40
2022-10-01T10:42:59.440Z,91.20
2022-10-01T10:45:31.959Z,90.90
2022-10-01T10:47:59.868Z,90.70
2022-10-01T10:50:27.121Z,90.40
2022-10-01T10:52:54.015Z,90.50
2022-10-01T10:55:22.492Z,90.40
2022-10-01T10:57:49.412Z,90.30
2022-10-01T11:00:17.788Z,89.30
2022-10-01T11:02:56.681Z,88.00
2022-10-01T11:05:24.836Z,87.80
2022-10-01T11:07:56.158Z,86.20
2022-10-01T11:10:28.985Z,85.80
2022-10-01T11:13:14.806Z,85.70
2022-10-01T11:16:00.286Z,84.40
2022-10-01T11:18:46.243Z,85.10
2022-10-01T11:21:20.879Z,84.70
2022-10-01T11:23:56.942Z,83.60
2022-10-01T11:26:53.330Z,82.80
2022-10-01T11:29:30.568Z,81.80
2022-10-01T11:32:05.297Z,81.40
2022-10-01T11:34:38.335Z,80.50
2022-10-01T11:37:11.668Z,80.50
2022-10-01T11:39:39.959Z,79.20
2022-10-01T11:42:09.326Z,77.50
2022-10-01T11:44:39.495Z,77.30
2022-10-01T11:47:26.578Z,75.70
2022-10-01T11:49:56.518Z,74.20
2022-10-01T11:52:23.625Z,75.00
2022-10-01T11:54:56.536Z,75.30
2022-10-01T11:57:42.074Z,74.90
2022-10-01T12:00:11.108Z,74.90
2022-10-01T12:02:53.663Z,72.70
2022-10-01T12:05:22.540Z,71.90
2022-10-01T12:07:59.199Z,72.30
2022-10-01T12:10:40.543Z,72.70
2022-10-01T12:13:10.215Z,73.30
2022-10-01T12:15:56.116Z,73.30
2022-10-01T12:18:36.935Z,72.30
2022-10-01T12:21:07.602Z,72.00
2022-10-01T12:23:41.685Z,70.90
2022-10-01T12:26:14.820Z,70.50
2022-10-01T12:28:59.938Z,70.40
2022-10-01T12:31:51.373Z,69.50
2022-10-01T12:34:22.464Z,69.60
2022-10-01T12:36:49.316Z,69.00
2022-10-01T12:39:22.050Z,68.60
2022-10-01T12:41:57.797Z,69.60
2022-10-01T12:44:35.201Z,68.50
2022-10-01T12:47:09.342Z,68.20
2022-10-01T12:49:45.779Z,67.80
2022-10-01T12:52:19.427Z,67.90
2022-10-01T12:54:51.177Z,67.20
2022-10-01T12:57:37.090Z,67.80
2022-10-01T13:00:12.578Z,67.60
2022-10-01T13:02:45.496Z,67.00
2022-10-01T13:05:30.998Z,67.40
2022-10-01T13:08:00.948Z,66.90
2022-10-01T13:10:43.134Z,67.70
2022-10-01T13:13:22.423Z,67.80
2022-10-01T13:15:54.231Z,66.90
2022-10-01T13:18:30.108Z,66.60
2022-10-01T13:21:00.211Z,66.30
2022-10-01T13:23:57.442Z,66.60
2022-10-01T13:26:40.773Z,67.00
2022-10-01T13:29:07.831Z,66.80
2022-10-01T13:31:34.989Z,66.30
2022-10-01T13:34:02.860Z,66.30
2022-10-01T13:36:31.159Z,66.40
2022-10-01T13:38:58.496Z,66.30
2022-10-01T13:41:25.224Z,66.60
2022-10-01T13:44:02.534Z,66.70
2022-10-01T13:46:31.789Z,66.10
2022-10-01T13:49:15.775Z,66.00
2022-10-01T13:51:44.524Z,67.20
2022-10-01T13:54:18.632Z,67.30
2022-10-01T13:56:45.678Z,66.40
2022-10-01T13:59:27.268Z,66.50
2022-10-01T14:01:54.302Z,66.50
2022-10-01T14:04:36.088Z,65.90
2022-10-01T14:07:22.081Z,66.00
2022-10-01T14:09:51.181Z,64.40
2022-10-01T14:12:36.723Z,64.50
2022-10-01T14:15:32.452Z,64.70
2022-10-01T14:18:02.059Z,64.00
2022-10-01T14:20:32.362Z,64.80
2022-10-01T14:23:21.197Z,64.00
2022-10-01T14:25:59.239Z,64.40
2022-10-01T14:28:29.107Z,65.00
2022-10-01T14:31:11.333Z,65.30
2022-10-01T14:33:47.079Z,65.40
2022-10-01T14:36:31.836Z,65.60
2022-10-01T14:39:11.774Z,65.80
2022-10-01T14:41:38.593Z,65.40
2022-10-01T14:44:24.112Z,65.20
2022-10-01T14:46:51.604Z,65.90
2022-10-01T14:49:29.062Z,64.90
2022-10-01T14:51:59.992Z,65.30
2022-10-01T14:54:27.434Z,66.00
2022-10-01T14:56:54.883Z,66.30
2022-10-01T14:59:27.889Z,66.60
2022-10-01T15:01:59.629Z,66.10
2022-10-01T15:04:26.576Z,65.80
2022-10-01T15:06:53.820Z,65.60
2022-10-01T15:09:21.594Z,66.20
2022-10-01T15:11:49.951Z,66.50
2022-10-01T15:14:18.996Z,66.60
2022-10-01T15:16:45.965Z,67.00
2022-10-01T15:19:15.636Z,66.90
2022-10-01T15:21:45.480Z,66.90
2022-10-01T15:24:33.645Z,66.90
2022-10-01T15:27:00.817Z,66.90
2022-10-01T15:29:27.644Z,66.90
2022-10-01T15:31:56.283Z,67.30
2022-10-01T15:34:25.351Z,67.20
2022-10-01T15:36:52.579Z,66.90
2022-10-01T15:39:25.681Z,67.60
2022-10-01T15:41:53.355Z,68.00
2022-10-01T15:44:38.426Z,68.50
2022-10-01T15:47:21.090Z,68.60
2022-10-01T15:50:08.153Z,69.10
2022-10-01T15:52:50.798Z,69.00
2022-10-01T15:55:23.678Z,68.50
2022-10-01T15:57:52.307Z,68.40
2022-10-01T16:00:29.492Z,68.20
2022-10-01T16:02:57.523Z,68.30
2022-10-01T16:05:26.719Z,68.10
2022-10-01T16:07:58.477Z,68.50
2022-10-01T16:10:28.473Z,69.10
2022-10-01T16:12:55.316Z,69.40
2022-10-01T16:15:29.542Z,69.50
2022-10-01T16:18:02.397Z,69.20
2022-10-01T16:20:50.494Z,69.30
2022-10-01T16:23:40.579Z,69.60
2022-10-01T16:26:27.386Z,69.30
2022-10-01T16:29:00.137Z,70.00
2022-10-01T16:31:27.442Z,70.80
2022-10-01T16:33:54.230Z,71.60
2022-10-01T16:36:23.970Z,72.90
2022-10-01T16:38:51.140Z,73.20
2022-10-01T16:41:22.432Z,73.60
2022-10-01T16:43:49.975Z,74.10
2022-10-01T16:46:16.999Z,74.20
2022-10-01T16:48:44.417Z,74.90
2022-10-01T16:51:12.254Z,75.30
2022-10-01T16:53:42.747Z,75.60
2022-10-01T16:56:10.820Z,75.90
2022-10-01T16:58:38.473Z,76.50
2022-10-01T17:01:07.790Z,76.70
2022-10-01T17:03:35.378Z,76.80
2022-10-01T17:06:02.747Z,77.10
2022-10-01T17:08:29.526Z,77.50
2022-10-01T17:10:59.065Z,77.40
2022-10-01T17:13:26.700Z,78.00
2022-10-01T17:15:53.953Z,78.00
2022-10-01T17:18:20.899Z,78.50
2022-10-01T17:20:47.797Z,78.70
2022-10-01T17:23:15.627Z,79.00
2022-10-01T17:25:43.140Z,79.10
2022-10-01T17:28:14.476Z,78.90
2022-10-01T17:30:46.498Z,79.10
2022-10-01T17:33:14.073Z,79.00
2022-10-01T17:35:44.932Z,79.60
2022-10-01T17:38:12.112Z,80.10
2022-10-01T17:40:39.704Z,80.20
2022-10-01T17:43:06.505Z,80.50
2022-10-01T17:45:33.297Z,80.60
2022-10-01T17:48:01.717Z,80.80
2022-10-01T17:50:28.563Z,80.80
2022-10-01T17:52:55.374Z,81.20
2022-10-01T17:55:23.792Z,81.00
2022-10-01T17:57:51.013Z,81.00
2022-10-01T18:00:18.004Z,81.20
2022-10-01T18:02:45.162Z,81.50
2022-10-01T18:05:14.461Z,81.10
2022-10-01T18:07:41.990Z,81.60
2022-10-01T18:10:10.843Z,81.90
2022-10-01T18:12:37.684Z,81.80
2022-10-01T18:15:04.667Z,82.00
2022-10-01T18:17:32.178Z,82.20
2022-10-01T18:19:59.099Z,81.80
2022-10-01T18:22:26.655Z,81.80
2022-10-01T18:24:53.494Z,81.80
2022-10-01T18:27:20.413Z,82.00
2022-10-01T18:29:47.118Z,82.10
2022-10-01T18:32:17.028Z,82.20
2022-10-01T18:35:00.600Z,82.20
2022-10-01T18:37:39.190Z,82.50
2022-10-01T18:40:06.948Z,82.80
2022-10-01T18:42:33.726Z,82.80
2022-10-01T18:45:01.935Z,82.70
2022-10-01T18:47:41.065Z,82.90
2022-10-01T18:50:22.493Z,83.00
2022-10-01T18:52:49.408Z,83.10
2022-10-01T18:55:25.442Z,82.90
2022-10-01T18:58:01.492Z,83.60
2022-10-01T19:00:31.986Z,83.50
2022-10-01T19:03:34.611Z,83.70
2022-10-01T19:06:17.288Z,83.60
2022-10-01T19:08:44.259Z,83.50
2022-10-01T19:11:31.310Z,83.40
2022-10-01T19:14:26.379Z,83.30
2022-10-01T19:17:01.973Z,83.20
2022-10-01T19:19:41.577Z,83.50
2022-10-01T19:22:21.549Z,83.90
2022-10-01T19:25:00.970Z,84.00
2022-10-01T19:27:43.885Z,84.40
2022-10-01T19:30:11.925Z,84.00
2022-10-01T19:32:41.848Z,83.70
2022-10-01T19:35:15.706Z,83.90
2022-10-01T19:37:47.047Z,84.00
2022-10-01T19:40:21.231Z,83.80
2022-10-01T19:43:00.576Z,83.70
2022-10-01T19:45:27.441Z,84.30
2022-10-01T19:48:09.832Z,85.10
2022-10-01T19:50:44.376Z,84.20
2022-10-01T19:53:20.513Z,84.30
2022-10-01T19:55:48.465Z,84.80
2022-10-01T19:58:18.546Z,85.10
2022-10-01T20:00:48.770Z,85.00
2022-10-01T20:03:26.950Z,84.90
2022-10-01T20:05:56.863Z,84.90
2022-10-01T20:08:42.201Z,84.90
2022-10-01T20:11:21.310Z,85.10
2022-10-01T20:13:51.317Z,85.30
2022-10-01T20:16:23.288Z,85.40
2022-10-01T20:19:04.897Z,85.40
2022-10-01T20:21:40.549Z,85.40
2022-10-01T20:24:15.071Z,85.60
2022-10-01T20:26:41.886Z,85.70
2022-10-01T20:29:08.625Z,86.60
2022-10-01T20:31:49.727Z,85.80
2022-10-01T20:34:25.291Z,86.20
2022-10-01T20:36:58.459Z,86.30
2022-10-01T20:39:34.118Z,86.20
2022-10-01T20:42:01.389Z,86.10
2022-10-01T20:44:31.793Z,86.30
2022-10-01T20:47:00.134Z,86.30
2022-10-01T20:49:32.474Z,86.30
2022-10-01T20:52:02.252Z,86.10
2022-10-01T20:54:35.436Z,86.00
2022-10-01T20:57:05.949Z,86.20
2022-10-01T20:59:53.025Z,86.10
2022-10-01T21:02:19.846Z,86.10
2022-10-01T21:04:50.744Z,86.40
2022-10-01T21:07:36.569Z,86.30
2022-10-01T21:10:06.312Z,86.70
2022-10-01T21:12:37.919Z,86.90
2022-10-01T21:15:05.123Z,86.90
2022-10-01T21:17:47.232Z,86.90
2022-10-01T21:20:32.816Z,86.80
2022-10-01T21:23:08.502Z,86.90
2022-10-01T21:25:54.196Z,87.00
2022-10-01T21:28:41.379Z,87.40
2022-10-01T21:31:14.413Z,87.30
2022-10-01T21:33:53.947Z,87.30
2022-10-01T21:36:27.019Z,87.20
2022-10-01T21:38:55.913Z,87.10
2022-10-01T21:41:23.073Z,87.30
2022-10-01T21:43:50.004Z,87.40
2022-10-01T21:46:19.807Z,87.20
2022-10-01T21:48:49.560Z,87.10
2022-10-01T21:51:16.583Z,87.10
2022-10-01T21:53:52.700Z,87.50
2022-10-01T21:56:26.235Z,87.70
2022-10-01T21:59:06.409Z,87.80
2022-10-01T22:01:52.302Z,87.60
2022-10-01T22:04:24.284Z,87.80
2022-10-01T22:06:53.191Z,87.50
2022-10-01T22:09:29.084Z,87.50
2022-10-01T22:12:00.347Z,88.50
2022-10-01T22:14:27.689Z,87.80
2022-10-01T22:16:59.249Z,87.90
2022-10-01T22:19:30.125Z,87.70
2022-10-01T22:22:09.359Z,87.70
2022-10-01T22:24:43.664Z,87.90
2022-10-01T22:27:13.531Z,87.80
2022-10-01T22:29:42.470Z,88.00
2022-10-01T22:32:11.699Z,87.80
2022-10-01T22:34:41.000Z,88.10
2022-10-01T22:37:12.893Z,88.10
2022-10-01T22:39:42.469Z,87.90
2022-10-01T22:42:17.415Z,88.00
2022-10-01T22:44:48.092Z,87.60
2022-10-01T22:47:18.009Z,88.00
2022-10-01T22:49:56.608Z,87.40
2022-10-01T22:52:31.212Z,87.50
2022-10-01T22:55:07.504Z,87.70
2022-10-01T22:57:53.505Z,87.50
2022-10-01T23:00:21.406Z,87.40
2022-10-01T23:02:53.302Z,87.00
2022-10-01T23:05:23.165Z,87.30
2022-10-01T23:08:01.252Z,87.40
2022-10-01T23:10:52.530Z,87.60
2022-10-01T23:13:29.902Z,87.70
2022-10-01T23:16:05.017Z,87.30
2022-10-01T23:18:41.233Z,87.50
2022-10-01T23:21:13.918Z,87.30
2022-10-01T23:23:41.648Z,87.70
2022-10-01T23:26:17.536Z,87.80
2022-10-01T23:29:11.769Z,88.20
2022-10-01T23:31:51.185Z,87.40
2022-10-01T23:34:21.113Z,87.70
2022-10-01T23:37:05.601Z,87.90
2022-10-01T23:39:35.604Z,88.00
2022-10-01T23:42:09.455Z,87.90
2022-10-01T23:44:42.393Z,88.10
2022-10-01T23:47:14.104Z,88.40
2022-10-01T23:49:42.654Z,87.90
2022-10-01T23:52:29.853Z,88.00
2022-10-01T23:55:22.824Z,87.70
2022-10-01T23:57:52.491Z,87.80
